Time;durP1;ratioP1;P1;durP2;ratioP2;P2;SDS_P1;SDS_P2;PMS_P1;PMS_P2;Temp;Humidity;BMP_temperature;BMP_pressure;BME280_temperature;BME280_humidity;BME280_pressure;Samples;Min_cycle;Max_cycle;Signal;HPM_P1;HPM_P2
2022/04/14 00:01:33;;;;;;;37.00;20.67;;;13.40;99.90;;;;;;5053509;28;20029;-67
2022/04/14 00:03:58;;;;;;;35.85;21.20;;;13.40;99.90;;;;;;5054669;28;20108;-67
2022/04/14 00:06:24;;;;;;;34.88;20.60;;;13.30;99.90;;;;;;5054466;28;20086;-67
2022/04/14 00:08:52;;;;;;;37.80;21.08;;;13.30;99.90;;;;;;5054785;28;20397;-67
2022/04/14 00:11:19;;;;;;;36.85;22.80;;;13.30;99.90;;;;;;5054619;28;20042;-67
2022/04/14 00:13:44;;;;;;;37.38;21.55;;;13.20;99.90;;;;;;5054487;28;20025;-67
2022/04/14 00:16:10;;;;;;;40.67;21.88;;;13.20;99.90;;;;;;5054369;28;20036;-67
2022/04/14 00:18:35;;;;;;;41.40;22.85;;;13.20;99.90;;;;;;5054279;28;20029;-67
2022/04/14 00:21:01;;;;;;;32.58;21.50;;;13.10;99.90;;;;;;5054288;28;20399;-67
2022/04/14 00:23:26;;;;;;;39.35;22.40;;;13.10;99.90;;;;;;5053462;28;20060;-67
2022/04/14 00:25:52;;;;;;;41.35;23.15;;;13.10;99.90;;;;;;5053062;28;20096;-67
2022/04/14 00:28:18;;;;;;;44.05;24.88;;;13.10;99.90;;;;;;5054265;28;20498;-67
2022/04/14 00:30:43;;;;;;;43.80;25.27;;;13.00;99.90;;;;;;5053188;28;20433;-67
2022/04/14 00:33:09;;;;;;;38.03;23.98;;;13.00;99.90;;;;;;5054368;28;20471;-67
2022/04/14 00:35:34;;;;;;;42.28;24.27;;;13.00;99.90;;;;;;5054037;28;20100;-67
2022/04/14 00:38:00;;;;;;;39.08;22.00;;;13.00;99.90;;;;;;5052671;28;20025;-67
2022/04/14 00:40:26;;;;;;;39.72;21.25;;;13.00;99.90;;;;;;5052684;28;20028;-67
2022/04/14 00:42:51;;;;;;;37.42;21.38;;;13.00;99.90;;;;;;5054150;28;20124;-67
2022/04/14 00:45:17;;;;;;;42.22;21.58;;;12.90;99.90;;;;;;5054128;28;20525;-68
2022/04/14 00:47:42;;;;;;;38.80;23.00;;;12.90;99.90;;;;;;5053800;28;20067;-67
2022/04/14 00:50:08;;;;;;;40.72;23.10;;;12.90;99.90;;;;;;5054044;28;20104;-67
2022/04/14 00:52:34;;;;;;;40.13;22.90;;;12.80;99.90;;;;;;5054002;28;20491;-67
2022/04/14 00:55:00;;;;;;;40.90;21.92;;;12.80;99.90;;;;;;5053680;28;20025;-67
2022/04/14 00:57:25;;;;;;;37.63;20.10;;;12.80;99.90;;;;;;5053703;28;20029;-67
2022/04/14 00:59:51;;;;;;;37.05;20.67;;;12.80;99.90;;;;;;5053502;28;20391;-67
2022/04/14 01:02:17;;;;;;;39.65;20.90;;;12.80;99.90;;;;;;5053650;28;20060;-67
2022/04/14 01:04:44;;;;;;;34.47;19.52;;;12.80;99.90;;;;;;5053486;28;20095;-67
2022/04/14 01:07:09;;;;;;;38.55;19.58;;;12.70;99.90;;;;;;5053778;28;20490;-67
2022/04/14 01:09:37;;;;;;;32.45;20.58;;;12.70;99.90;;;;;;5053689;28;20049;-68
2022/04/14 01:12:04;;;;;;;35.90;20.08;;;12.70;99.90;;;;;;5053412;28;20033;-68
2022/04/14 01:14:31;;;;;;;36.17;20.95;;;12.70;99.90;;;;;;5053658;28;20094;-67
2022/04/14 01:17:00;;;;;;;32.58;19.95;;;12.60;99.90;;;;;;5053331;28;20017;-67
2022/04/14 01:19:27;;;;;;;36.55;20.27;;;12.60;99.90;;;;;;5053281;28;20023;-68
2022/04/14 01:22:00;;;;;;;33.30;20.20;;;12.60;99.90;;;;;;5053265;28;20020;-67
2022/04/14 01:24:25;;;;;;;34.83;18.55;;;12.60;99.90;;;;;;5053307;28;20013;-67
2022/04/14 01:26:52;;;;;;;33.65;18.17;;;12.60;99.90;;;;;;5053254;28;20112;-68
2022/04/14 01:29:21;;;;;;;34.92;19.42;;;12.60;99.90;;;;;;5053303;28;20028;-67
2022/04/14 01:31:46;;;;;;;33.45;18.35;;;12.50;99.90;;;;;;5053436;28;20517;-68
2022/04/14 01:34:12;;;;;;;31.98;18.20;;;12.60;99.90;;;;;;5052945;28;20067;-68
2022/04/14 01:36:37;;;;;;;35.13;19.27;;;12.50;99.90;;;;;;5053088;28;20475;-67
2022/04/14 01:39:03;;;;;;;35.15;19.42;;;12.50;99.90;;;;;;5052776;28;20045;-67
2022/04/14 01:41:28;;;;;;;31.05;19.65;;;12.50;99.90;;;;;;5053342;28;20527;-67
2022/04/14 01:43:54;;;;;;;33.20;18.92;;;12.50;99.90;;;;;;5053052;28;20100;-68
2022/04/14 01:46:19;;;;;;;36.17;20.05;;;12.50;99.90;;;;;;5051874;28;20387;-67
2022/04/14 01:48:45;;;;;;;36.17;19.33;;;12.50;99.90;;;;;;5053361;28;20491;-67
2022/04/14 01:51:10;;;;;;;34.58;19.52;;;12.50;99.90;;;;;;5051688;28;20033;-67
2022/04/14 01:53:36;;;;;;;33.08;18.25;;;12.50;99.90;;;;;;5052876;28;20041;-67
2022/04/14 01:56:01;;;;;;;33.72;19.63;;;12.50;99.90;;;;;;5052937;28;20502;-68
2022/04/14 01:58:27;;;;;;;32.30;20.10;;;12.50;99.90;;;;;;5052876;28;20059;-67
2022/04/14 02:00:52;;;;;;;29.95;18.92;;;12.40;99.90;;;;;;5035119;28;20387;-67
2022/04/14 02:03:18;;;;;;;33.53;18.98;;;12.40;99.90;;;;;;5052885;28;20364;-67
2022/04/14 02:05:43;;;;;;;30.10;18.73;;;12.40;99.90;;;;;;5052799;28;20025;-67
2022/04/14 02:08:09;;;;;;;30.48;18.70;;;12.40;99.90;;;;;;5052838;28;20453;-67
2022/04/14 02:10:35;;;;;;;30.27;18.23;;;12.30;99.90;;;;;;5051888;28;20111;-67
2022/04/14 02:13:00;;;;;;;30.15;18.77;;;12.30;99.90;;;;;;5052813;28;20116;-67
2022/04/14 02:15:26;;;;;;;31.52;18.55;;;12.30;99.90;;;;;;5052782;28;20078;-67
2022/04/14 02:17:51;;;;;;;28.65;17.80;;;12.30;99.90;;;;;;5052936;28;20032;-67
2022/04/14 02:20:17;;;;;;;31.45;19.25;;;12.30;99.90;;;;;;5051733;28;20040;-67
2022/04/14 02:22:43;;;;;;;33.45;19.92;;;12.30;99.90;;;;;;5052670;28;20029;-67
2022/04/14 02:25:09;;;;;;;38.70;19.98;;;12.30;99.90;;;;;;5052971;28;20386;-67
2022/04/14 02:27:34;;;;;;;35.45;21.15;;;12.30;99.90;;;;;;5052703;28;20021;-67
2022/04/14 02:30:00;;;;;;;31.23;17.83;;;12.30;99.90;;;;;;5052678;28;20446;-67
2022/04/14 02:32:26;;;;;;;30.40;18.15;;;12.30;99.90;;;;;;5052908;28;20112;-67
2022/04/14 02:34:51;;;;;;;30.60;19.05;;;12.30;99.90;;;;;;5052768;28;20082;-67
2022/04/14 02:37:16;;;;;;;30.83;19.17;;;12.30;99.90;;;;;;5035145;28;20407;-67
2022/04/14 02:39:42;;;;;;;33.75;19.58;;;12.20;99.90;;;;;;5052645;28;20096;-67
2022/04/14 02:42:07;;;;;;;34.60;19.83;;;12.30;99.90;;;;;;5053242;28;20494;-67
2022/04/14 02:44:33;;;;;;;40.05;22.20;;;12.20;99.90;;;;;;5053017;28;20036;-67
2022/04/14 02:46:58;;;;;;;41.63;22.90;;;12.30;99.90;;;;;;5055987;28;20505;-66
2022/04/14 02:49:24;;;;;;;42.15;23.15;;;12.20;99.90;;;;;;5061258;28;20087;-67
2022/04/14 02:51:50;;;;;;;45.22;23.90;;;12.30;99.90;;;;;;5059869;28;20154;-66
2022/04/14 02:54:16;;;;;;;39.85;21.67;;;12.30;99.90;;;;;;5061400;28;20395;-67
2022/04/14 02:56:41;;;;;;;42.05;21.08;;;12.20;99.90;;;;;;5060709;28;20025;-67
2022/04/14 02:59:07;;;;;;;35.92;21.17;;;12.20;99.90;;;;;;5061441;28;20029;-67
2022/04/14 03:01:32;;;;;;;39.92;22.58;;;12.20;99.90;;;;;;5061812;28;20029;-67
2022/04/14 03:03:58;;;;;;;41.80;22.90;;;12.20;99.90;;;;;;5061597;28;20032;-67
2022/04/14 03:06:23;;;;;;;40.60;23.92;;;12.20;99.90;;;;;;5061815;28;20017;-67
2022/04/14 03:08:49;;;;;;;43.20;23.55;;;12.20;99.90;;;;;;5062394;28;20455;-67
2022/04/14 03:11:14;;;;;;;42.55;22.85;;;12.20;99.90;;;;;;5057565;28;20024;-67
2022/04/14 03:13:41;;;;;;;47.22;24.48;;;12.20;99.90;;;;;;5055649;28;20112;-67
2022/04/14 03:16:07;;;;;;;45.22;24.02;;;12.20;99.90;;;;;;5055596;28;20071;-67
2022/04/14 03:18:33;;;;;;;41.67;24.38;;;12.20;99.90;;;;;;5055657;28;20036;-67
2022/04/14 03:20:58;;;;;;;41.65;23.70;;;12.20;99.90;;;;;;5055511;28;20025;-67
2022/04/14 03:23:24;;;;;;;41.35;23.88;;;12.20;99.90;;;;;;5055460;28;20064;-67
2022/04/14 03:25:50;;;;;;;43.17;24.30;;;12.20;99.90;;;;;;5055626;28;20021;-67
2022/04/14 03:28:15;;;;;;;33.70;21.92;;;12.20;99.90;;;;;;5055593;28;20391;-67
2022/04/14 03:30:41;;;;;;;42.85;23.63;;;12.20;99.90;;;;;;5054006;28;20068;-67
2022/04/14 03:33:06;;;;;;;43.35;23.23;;;12.20;99.90;;;;;;5055510;28;20170;-67
2022/04/14 03:35:32;;;;;;;39.95;22.30;;;12.20;99.90;;;;;;5055470;28;20531;-67
2022/04/14 03:37:58;;;;;;;41.00;23.08;;;12.20;99.90;;;;;;5053803;28;20111;-67
2022/04/14 03:40:23;;;;;;;40.63;22.05;;;12.30;99.90;;;;;;5055114;28;20029;-67
2022/04/14 03:42:49;;;;;;;35.92;21.33;;;12.20;99.90;;;;;;5055170;28;20113;-67
2022/04/14 03:45:14;;;;;;;41.33;22.20;;;12.20;99.90;;;;;;5054999;28;20028;-67
2022/04/14 03:47:40;;;;;;;35.13;21.77;;;12.20;99.90;;;;;;5054983;28;20033;-67
2022/04/14 03:50:06;;;;;;;39.00;22.17;;;12.20;99.90;;;;;;5053633;28;20369;-67
2022/04/14 03:52:31;;;;;;;38.97;21.80;;;12.10;99.90;;;;;;5053589;28;20029;-67
2022/04/14 03:54:57;;;;;;;45.67;23.27;;;12.10;99.90;;;;;;5054810;28;20032;-67
2022/04/14 03:57:24;;;;;;;37.97;22.90;;;12.10;99.90;;;;;;5055053;28;20021;-67
2022/04/14 03:59:49;;;;;;;42.78;22.70;;;12.10;99.90;;;;;;5055005;28;20536;-67
2022/04/14 04:02:15;;;;;;;42.05;23.33;;;12.10;99.90;;;;;;5053421;28;20021;-67
2022/04/14 04:04:41;;;;;;;41.72;23.35;;;12.10;99.90;;;;;;5054674;28;20040;-67
2022/04/14 04:07:06;;;;;;;45.13;23.65;;;12.00;99.90;;;;;;5054611;28;20025;-67
2022/04/14 04:09:33;;;;;;;38.25;23.70;;;12.00;99.90;;;;;;5054562;28;20033;-67
2022/04/14 04:11:59;;;;;;;48.15;25.08;;;12.00;99.90;;;;;;5054759;28;20032;-67
2022/04/14 04:14:24;;;;;;;48.55;25.27;;;12.00;99.90;;;;;;5054593;28;20387;-67
2022/04/14 04:16:50;;;;;;;46.03;24.63;;;12.00;99.90;;;;;;5054547;28;20039;-67
2022/04/14 04:19:16;;;;;;;48.35;24.85;;;12.00;99.90;;;;;;5054625;28;20033;-67
2022/04/14 04:21:41;;;;;;;41.38;24.83;;;12.00;99.90;;;;;;5054317;28;20060;-67
2022/04/14 04:24:07;;;;;;;44.25;25.30;;;11.90;99.90;;;;;;5054560;28;20021;-67
2022/04/14 04:26:32;;;;;;;50.15;25.25;;;11.90;99.90;;;;;;5054228;28;20036;-67
2022/04/14 04:28:58;;;;;;;50.60;26.30;;;11.90;99.90;;;;;;5054446;28;20021;-67
2022/04/14 04:31:23;;;;;;;45.38;24.73;;;11.90;99.90;;;;;;5054264;28;20033;-67
2022/04/14 04:33:51;;;;;;;53.08;25.55;;;11.80;99.90;;;;;;5054122;28;20104;-68
2022/04/14 04:36:17;;;;;;;45.10;24.85;;;11.80;99.90;;;;;;5054138;28;20082;-67
2022/04/14 04:38:43;;;;;;;48.88;25.48;;;11.80;99.90;;;;;;5053740;28;20131;-67
2022/04/14 04:41:08;;;;;;;49.95;25.52;;;11.80;99.90;;;;;;5054165;28;20056;-67
2022/04/14 04:43:34;;;;;;;43.90;24.38;;;11.80;99.90;;;;;;5054208;28;20025;-67
2022/04/14 04:45:59;;;;;;;47.70;25.50;;;11.80;99.90;;;;;;5054098;28;20029;-67
2022/04/14 04:48:25;;;;;;;56.22;25.50;;;11.80;99.90;;;;;;5053729;28;20029;-67
2022/04/14 04:50:51;;;;;;;48.17;26.73;;;11.80;99.90;;;;;;5053779;28;20028;-67
2022/04/14 04:53:16;;;;;;;52.88;28.10;;;11.80;99.90;;;;;;5053637;28;20021;-67
2022/04/14 04:55:42;;;;;;;49.47;26.35;;;11.80;99.90;;;;;;5053703;28;20021;-67
2022/04/14 04:58:07;;;;;;;50.03;27.25;;;11.80;99.90;;;;;;5053916;28;20029;-67
2022/04/14 05:00:33;;;;;;;45.90;26.40;;;11.80;99.90;;;;;;5053737;28;20123;-68
2022/04/14 05:02:58;;;;;;;50.42;27.58;;;11.80;99.90;;;;;;5052375;28;20505;-67
2022/04/14 05:05:24;;;;;;;49.75;26.48;;;11.80;99.90;;;;;;5035771;28;20061;-67
2022/04/14 05:07:50;;;;;;;50.30;27.58;;;11.80;99.90;;;;;;5053525;28;20031;-67
2022/04/14 05:10:16;;;;;;;52.13;28.95;;;11.90;99.90;;;;;;5052967;28;20382;-67
2022/04/14 05:12:42;;;;;;;56.58;29.73;;;;;;;;;;5053626;28;20048;-67
2022/04/14 05:15:08;;;;;;;51.83;31.20;;;11.90;99.90;;;;;;5053418;28;20039;-67
2022/04/14 05:17:33;;;;;;;60.05;32.22;;;11.90;99.90;;;;;;5053325;28;20453;-67
2022/04/14 05:19:59;;;;;;;58.53;31.92;;;11.90;99.90;;;;;;5053267;28;20028;-67
2022/04/14 05:22:24;;;;;;;64.65;33.53;;;11.90;99.90;;;;;;5053175;28;20107;-67
2022/04/14 05:24:50;;;;;;;59.40;34.40;;;11.90;99.90;;;;;;5053248;28;20025;-67
2022/04/14 05:27:15;;;;;;;65.32;36.03;;;11.90;99.90;;;;;;5052037;28;20032;-67
2022/04/14 05:29:41;;;;;;;67.75;36.70;;;11.90;99.90;;;;;;5053168;28;20037;-67
2022/04/14 05:32:07;;;;;;;66.03;37.38;;;11.90;99.90;;;;;;5053184;28;20021;-67
2022/04/14 05:34:33;;;;;;;67.05;39.60;;;11.90;99.90;;;;;;5053347;28;20056;-67
2022/04/14 05:36:58;;;;;;;69.82;38.88;;;12.00;99.90;;;;;;5053326;28;20029;-67
2022/04/14 05:39:24;;;;;;;70.38;39.55;;;12.00;99.90;;;;;;5052877;28;20110;-68
2022/04/14 05:41:49;;;;;;;71.57;40.47;;;12.00;99.90;;;;;;5053091;28;20356;-68
2022/04/14 05:44:16;;;;;;;75.85;40.80;;;12.00;99.90;;;;;;5052936;28;20075;-67
2022/04/14 05:46:42;;;;;;;75.45;41.42;;;12.00;99.90;;;;;;5053032;28;20424;-67
2022/04/14 05:49:07;;;;;;;73.28;40.17;;;12.00;99.90;;;;;;5052957;28;20025;-67
2022/04/14 05:51:33;;;;;;;76.43;41.22;;;12.00;99.90;;;;;;5051681;28;20040;-67
2022/04/14 05:53:58;;;;;;;77.90;43.55;;;12.10;99.90;;;;;;5052937;28;20099;-68
2022/04/14 05:56:24;;;;;;;74.25;42.08;;;12.10;99.90;;;;;;5052869;28;20025;-68
2022/04/14 05:58:50;;;;;;;76.75;42.97;;;12.00;99.90;;;;;;5052879;28;20398;-68
2022/04/14 06:01:15;;;;;;;78.70;43.22;;;12.10;99.90;;;;;;5052849;28;20025;-68
2022/04/14 06:03:41;;;;;;;69.07;40.15;;;12.20;99.90;;;;;;5052875;28;20442;-68
2022/04/14 06:06:08;;;;;;;67.13;39.58;;;12.20;99.90;;;;;;5053080;28;20025;-68
2022/04/14 06:08:34;;;;;;;68.80;38.72;;;12.30;99.90;;;;;;5052943;28;20029;-68
2022/04/14 06:10:59;;;;;;;69.15;39.42;;;12.30;99.90;;;;;;5052780;28;20029;-68
2022/04/14 06:13:25;;;;;;;66.00;38.63;;;12.40;99.90;;;;;;5052796;28;20025;-68
2022/04/14 06:15:50;;;;;;;66.32;38.88;;;12.40;99.90;;;;;;5051540;28;20036;-68
2022/04/14 06:18:16;;;;;;;67.15;38.97;;;12.50;99.90;;;;;;5051393;28;20057;-68
2022/04/14 06:20:41;;;;;;;60.90;37.85;;;12.50;99.90;;;;;;5034835;28;20029;-68
2022/04/14 06:23:08;;;;;;;67.68;38.30;;;12.60;99.90;;;;;;5056521;28;20027;-68
2022/04/14 06:25:34;;;;;;;58.92;35.55;;;12.60;99.90;;;;;;5054990;28;20029;-68
2022/04/14 06:27:59;;;;;;;59.08;35.40;;;12.60;99.90;;;;;;5056372;28;20025;-68
2022/04/14 06:30:25;;;;;;;61.10;36.45;;;12.70;99.90;;;;;;5056419;28;20040;-68
2022/04/14 06:32:57;;;;;;;60.60;35.47;;;12.80;99.90;;;;;;5056494;28;20021;-68
2022/04/14 06:35:22;;;;;;;59.40;34.67;;;12.90;99.90;;;;;;5056540;28;20036;-68
2022/04/14 06:37:48;;;;;;;60.05;36.47;;;13.00;99.90;;;;;;5055984;28;20033;-68
2022/04/14 06:40:13;;;;;;;56.72;34.65;;;13.20;99.90;;;;;;5056210;28;20029;-68
2022/04/14 06:42:39;;;;;;;58.35;33.45;;;13.10;99.90;;;;;;5056176;28;20036;-68
2022/04/14 06:45:05;;;;;;;54.97;34.03;;;13.10;99.90;;;;;;5056369;28;20021;-68
2022/04/14 06:47:30;;;;;;;58.92;34.33;;;13.00;99.90;;;;;;5056107;28;20021;-68
2022/04/14 06:49:56;;;;;;;58.95;35.15;;;13.00;99.90;;;;;;5056025;28;20037;-68
2022/04/14 06:52:22;;;;;;;51.78;33.88;;;13.10;99.90;;;;;;5056119;28;20032;-68
2022/04/14 06:54:48;;;;;;;61.22;36.00;;;13.20;99.90;;;;;;5055942;28;20036;-68
2022/04/14 06:57:14;;;;;;;56.83;34.90;;;13.20;99.90;;;;;;5056160;28;20116;-68
2022/04/14 06:59:40;;;;;;;61.72;35.63;;;13.30;99.90;;;;;;5056024;28;20057;-68
2022/04/14 07:02:05;;;;;;;60.20;34.75;;;13.30;99.90;;;;;;5055775;28;20103;-68
2022/04/14 07:04:31;;;;;;;60.38;36.10;;;13.30;99.90;;;;;;5055798;28;20082;-68
2022/04/14 07:06:56;;;;;;;59.22;36.72;;;13.40;99.90;;;;;;5055644;28;20021;-68
2022/04/14 07:09:23;;;;;;;57.80;34.75;;;13.40;99.90;;;;;;5054428;28;20025;-68
2022/04/14 07:11:49;;;;;;;53.20;35.65;;;13.40;99.90;;;;;;5055491;28;20108;-68
2022/04/14 07:14:14;;;;;;;52.58;34.88;;;13.50;99.90;;;;;;5055563;28;20049;-68
2022/04/14 07:16:41;;;;;;;52.47;36.78;;;13.60;99.90;;;;;;5055579;28;20032;-68
2022/04/14 07:19:06;;;;;;;60.78;36.97;;;13.70;99.90;;;;;;5054152;28;20502;-68
2022/04/14 07:21:32;;;;;;;60.88;38.10;;;13.70;99.90;;;;;;5055555;28;20059;-68
2022/04/14 07:23:57;;;;;;;67.50;41.00;;;13.80;99.90;;;;;;5055398;28;20029;-68
2022/04/14 07:26:23;;;;;;;66.38;39.60;;;13.80;99.90;;;;;;5055494;28;20053;-68
2022/04/14 07:28:49;;;;;;;64.57;38.25;;;13.90;99.90;;;;;;5055250;28;20031;-68
2022/04/14 07:31:14;;;;;;;65.13;38.75;;;14.30;99.90;;;;;;5055170;28;20044;-68
2022/04/14 07:33:41;;;;;;;69.68;40.35;;;14.60;99.90;;;;;;5053663;28;20060;-69
2022/04/14 07:36:07;;;;;;;64.00;39.58;;;14.80;99.90;;;;;;5055274;28;20406;-69
2022/04/14 07:38:32;;;;;;;68.40;40.20;;;15.30;99.90;;;;;;5054953;28;20041;-68
2022/04/14 07:41:00;;;;;;;71.50;40.70;;;15.80;99.90;;;;;;5055190;28;20112;-69
2022/04/14 07:43:25;;;;;;;79.30;43.10;;;16.40;99.90;;;;;;5055188;28;20071;-68
2022/04/14 07:45:51;;;;;;;76.13;44.05;;;16.30;99.90;;;;;;5053874;28;20025;-69
2022/04/14 07:48:21;;;;;;;71.72;43.50;;;16.40;99.90;;;;;;5055202;28;20031;-69
2022/04/14 07:50:47;;;;;;;78.43;44.20;;;16.70;99.90;;;;;;5054897;28;20418;-69
2022/04/14 07:53:13;;;;;;;76.28;44.97;;;17.00;99.90;;;;;;5053625;28;20021;-69
2022/04/14 07:55:38;;;;;;;84.38;47.88;;;17.20;99.90;;;;;;5054810;28;20391;-69
2022/04/14 07:58:07;;;;;;;87.13;49.88;;;17.10;99.90;;;;;;5053834;28;20029;-68
2022/04/14 08:00:34;;;;;;;89.47;48.85;;;16.80;99.90;;;;;;5054622;28;20029;-69
2022/04/14 08:03:01;;;;;;;87.15;48.47;;;16.70;99.90;;;;;;5053538;28;20422;-69
2022/04/14 08:05:29;;;;;;;87.80;49.42;;;16.50;99.90;;;;;;5054660;28;20017;-69
2022/04/14 08:07:55;;;;;;;94.00;52.30;;;16.50;99.90;;;;;;5054777;28;20471;-69
2022/04/14 08:10:21;;;;;;;95.57;53.08;;;16.50;99.90;;;;;;5053161;28;20494;-69
2022/04/14 08:12:47;;;;;;;96.65;51.95;;;16.10;99.90;;;;;;5054361;28;20025;-69
2022/04/14 08:15:12;;;;;;;102.53;55.13;;;15.90;99.90;;;;;;5054412;28;20021;-69
2022/04/14 08:17:40;;;;;;;95.88;51.97;;;15.60;99.90;;;;;;5054623;28;20471;-68
2022/04/14 08:20:07;;;;;;;100.03;53.90;;;15.40;99.90;;;;;;5054239;28;20021;-69
2022/04/14 08:22:51;;;;;;;98.18;53.55;;;15.50;99.90;;;;;;5054574;28;20429;-69
2022/04/14 08:25:18;;;;;;;;;;;15.40;99.90;;;;;;5054717;28;20017;-69
2022/04/14 08:27:44;;;;;;;102.47;54.03;;;15.50;99.90;;;;;;5054382;28;19904;-69
2022/04/14 08:30:10;;;;;;;98.68;53.90;;;15.60;99.90;;;;;;5054191;28;20032;-69
2022/04/14 08:32:36;;;;;;;103.13;53.58;;;15.80;99.90;;;;;;5052863;28;20085;-69
2022/04/14 08:35:03;;;;;;;105.45;56.17;;;15.70;99.90;;;;;;5052799;28;20483;-69
2022/04/14 08:37:28;;;;;;;110.03;55.10;;;15.80;99.90;;;;;;5053992;28;20025;-69
2022/04/14 08:39:54;;;;;;;114.68;55.97;;;15.80;99.90;;;;;;5053649;28;20273;-69
2022/04/14 08:42:24;;;;;;;100.30;55.78;;;15.70;99.90;;;;;;5053887;28;20075;-69
2022/04/14 08:45:00;;;;;;;100.10;54.78;;;16.00;99.90;;;;;;5053690;28;20356;-69
2022/04/14 08:47:29;;;;;;;104.10;57.10;;;16.20;99.90;;;;;;5052471;28;20025;-69
2022/04/14 08:49:56;;;;;;;99.40;54.38;;;16.40;99.90;;;;;;5053825;28;20025;-69
2022/04/14 08:52:22;;;;;;;89.57;54.25;;;18.40;99.90;;;;;;5053643;28;20032;-69
2022/04/14 08:54:49;;;;;;;96.40;55.03;;;18.40;99.90;;;;;;5053633;28;20021;-69
2022/04/14 08:57:15;;;;;;;95.88;56.83;;;18.20;99.90;;;;;;5053877;28;20561;-69
2022/04/14 08:59:43;;;;;;;94.65;56.95;;;17.40;99.90;;;;;;5053712;28;20502;-69
2022/04/14 09:02:15;;;;;;;92.22;56.22;;;18.30;99.90;;;;;;5053714;28;20027;-69
2022/04/14 09:04:41;;;;;;;90.30;55.10;;;18.90;99.90;;;;;;5053498;28;20029;-69
2022/04/14 09:07:08;;;;;;;80.28;53.17;;;19.90;99.90;;;;;;5053658;28;20479;-69
2022/04/14 09:09:34;;;;;;;83.63;55.35;;;20.40;99.90;;;;;;5053322;28;20063;-69
2022/04/14 09:12:00;;;;;;;86.65;54.88;;;20.80;99.90;;;;;;5052149;28;20484;-69
2022/04/14 09:14:25;;;;;;;78.75;53.42;;;21.40;99.90;;;;;;5053362;28;20035;-69
2022/04/14 09:16:51;;;;;;;75.00;51.47;;;20.80;99.90;;;;;;5053357;28;20040;-69
2022/04/14 09:19:17;;;;;;;79.93;54.25;;;20.70;99.90;;;;;;5053187;28;20444;-69
2022/04/14 09:22:04;;;;;;;77.25;52.28;;;20.40;99.90;;;;;;5053453;28;20033;-70
2022/04/14 09:24:48;;;;;;;77.88;53.83;;;20.50;99.90;;;;;;5053139;28;20096;-69
2022/04/14 09:27:39;;;;;;;83.30;58.28;;;21.40;99.90;;;;;;5053446;28;20021;-69
2022/04/14 09:30:08;;;;;;;83.45;57.50;;;20.50;99.90;;;;;;5052934;28;20029;-69
2022/04/14 09:32:37;;;;;;;77.88;53.35;;;19.90;99.90;;;;;;5053182;28;20147;-69
2022/04/14 09:35:05;;;;;;;76.95;53.67;;;20.80;99.90;;;;;;5053340;28;20540;-69
2022/04/14 09:37:33;;;;;;;75.05;54.15;;;21.10;99.90;;;;;;5052992;28;20025;-69
2022/04/14 09:40:09;;;;;;;82.88;58.63;;;21.60;99.90;;;;;;5051443;28;20123;-69
2022/04/14 09:42:37;;;;;;;83.35;57.10;;;21.30;99.90;;;;;;5053237;28;20047;-69
2022/04/14 09:45:25;;;;;;;75.95;51.97;;;21.40;99.90;;;;;;5053306;28;20479;-69
2022/04/14 09:47:51;;;;;;;74.55;53.80;;;21.60;99.90;;;;;;5052891;28;20420;-69
2022/04/14 09:50:39;;;;;;;66.35;48.40;;;21.80;99.90;;;;;;5053088;28;20514;-69
2022/04/14 09:53:14;;;;;;;69.95;49.05;;;21.80;99.90;;;;;;5052809;28;20025;-69
2022/04/14 09:55:42;;;;;;;62.45;43.65;;;21.50;99.90;;;;;;5054967;28;20544;-69
2022/04/14 09:58:13;;;;;;;59.92;43.42;;;21.80;99.90;;;;;;5057326;28;20029;-69
2022/04/14 10:00:41;;;;;;;65.25;46.47;;;21.30;99.90;;;;;;5056900;28;20025;-69
2022/04/14 10:03:09;;;;;;;59.88;41.75;;;21.00;99.90;;;;;;5057240;28;20430;-69
2022/04/14 10:05:35;;;;;;;62.25;42.92;;;21.10;99.90;;;;;;5056792;28;20360;-69
2022/04/14 10:08:01;;;;;;;58.50;40.65;;;21.50;99.90;;;;;;5055901;28;20497;-69
2022/04/14 10:10:26;;;;;;;57.22;41.97;;;21.60;99.90;;;;;;5056997;28;20138;-69
2022/04/14 10:13:05;;;;;;;60.38;43.47;;;22.00;99.90;;;;;;5055607;28;20098;-69
2022/04/14 10:15:39;;;;;;;60.58;43.30;;;22.00;99.90;;;;;;5056782;28;20028;-72
2022/04/14 10:18:09;;;;;;;64.53;44.40;;;22.20;99.90;;;;;;5056948;28;20445;-69
2022/04/14 10:20:36;;;;;;;60.28;43.35;;;22.50;99.90;;;;;;5055661;28;20032;-69
2022/04/14 10:23:02;;;;;;;58.88;42.60;;;22.30;99.90;;;;;;5056493;28;20017;-69
2022/04/14 10:25:29;;;;;;;54.88;39.55;;;22.30;99.90;;;;;;5056637;28;20489;-69
2022/04/14 10:27:58;;;;;;;58.35;42.55;;;22.30;99.90;;;;;;5056679;28;20045;-69
2022/04/14 10:30:24;;;;;;;50.47;37.15;;;22.10;99.90;;;;;;5056654;28;20029;-69
2022/04/14 10:32:53;;;;;;;58.85;38.75;;;21.60;99.90;;;;;;5056313;28;20395;-69
2022/04/14 10:35:19;;;;;;;52.45;35.15;;;22.20;99.90;;;;;;5056581;28;20029;-69
2022/04/14 10:37:50;;;;;;;67.75;43.05;;;22.30;99.90;;;;;;5056567;28;20029;-69
2022/04/14 10:40:15;;;;;;;59.17;40.42;;;21.60;99.90;;;;;;5054831;28;20110;-69
2022/04/14 10:42:49;;;;;;;61.83;43.15;;;20.70;99.90;;;;;;5056431;28;20418;-69
2022/04/14 10:45:18;;;;;;;;;;;20.10;99.90;;;;;;5056844;28;20553;-70
2022/04/14 10:50:24;;;;;;;53.25;34.35;;;19.90;99.90;;;;;;5090739;28;20825;-69
2022/04/14 10:53:12;;;;;;;51.00;34.13;;;19.90;99.90;;;;;;5090841;28;20032;-68
2022/04/14 10:55:40;;;;;;;40.85;28.85;;;20.30;99.90;;;;;;5090441;28;20433;-68
2022/04/14 10:58:27;;;;;;;42.97;30.02;;;20.50;99.90;;;;;;5090766;28;20470;-69
2022/04/14 11:00:54;;;;;;;34.17;22.60;;;20.70;99.90;;;;;;5090385;28;20028;-69
2022/04/14 11:03:20;;;;;;;37.83;26.10;;;20.80;99.90;;;;;;5090375;28;20021;-69
2022/04/14 11:05:49;;;;;;;41.92;26.50;;;21.10;99.90;;;;;;5090410;28;20051;-69
2022/04/14 11:08:27;;;;;;;41.50;27.92;;;21.30;99.90;;;;;;5090270;28;20532;-69
2022/04/14 11:11:12;;;;;;;36.35;25.55;;;21.10;99.90;;;;;;5090351;28;20519;-69
2022/04/14 11:16:44;;;;;;;30.30;22.40;;;20.80;99.90;;;;;;5111078;27;20404;-69
2022/04/14 11:19:26;;;;;;;29.23;21.20;;;20.90;99.90;;;;;;5111215;28;20031;-68
2022/04/14 11:27:18;;;;;;;22.83;17.70;;;20.80;99.90;;;;;;5070624;28;20407;-69
2022/04/14 11:29:47;;;;;;;21.20;17.02;;;20.40;99.90;;;;;;5070470;28;20507;-69
2022/04/14 11:32:14;;;;;;;24.42;19.30;;;20.10;99.90;;;;;;5070439;28;20028;-69
2022/04/14 11:34:40;;;;;;;25.58;19.98;;;20.30;99.90;;;;;;5070328;28;20130;-69
2022/04/14 11:37:37;;;;;;;27.08;21.55;;;20.70;99.90;;;;;;5069440;28;20483;-69
2022/04/14 11:40:21;;;;;;;29.35;21.77;;;20.80;99.90;;;;;;5070160;28;20155;-69
2022/04/14 11:42:49;;;;;;;29.55;22.15;;;21.10;99.90;;;;;;5070122;28;20067;-69
2022/04/14 11:45:30;;;;;;;20.63;15.80;;;20.80;99.90;;;;;;5070073;28;20029;-68
2022/04/14 11:48:05;;;;;;;19.83;14.43;;;20.60;99.90;;;;;;5070370;28;20471;-68
2022/04/14 11:50:33;;;;;;;19.67;14.65;;;20.20;99.90;;;;;;5070293;28;20025;-68
2022/04/14 11:53:01;;;;;;;19.38;14.10;;;20.50;99.90;;;;;;5070009;28;20047;-68
2022/04/14 11:55:43;;;;;;;13.95;11.85;;;20.60;99.90;;;;;;5070047;28;20028;-68
2022/04/14 11:58:11;;;;;;;18.98;14.00;;;20.70;99.90;;;;;;5070154;28;20032;-69
2022/04/14 12:00:45;;;;;;;19.08;14.73;;;21.10;99.90;;;;;;5069879;28;20124;-69
2022/04/14 12:03:11;;;;;;;17.63;12.95;;;20.70;99.60;;;;;;5069735;28;20033;-69
2022/04/14 12:05:36;;;;;;;18.73;14.18;;;20.80;99.20;;;;;;5069739;28;20036;-69
2022/04/14 12:08:07;;;;;;;20.40;14.75;;;21.10;98.00;;;;;;5069677;28;20510;-69
2022/04/14 12:10:32;;;;;;;18.85;14.02;;;21.30;98.60;;;;;;5069897;28;20494;-70
2022/04/14 12:13:07;;;;;;;20.58;14.13;;;20.80;99.30;;;;;;5069717;28;20025;-69
2022/04/14 12:15:32;;;;;;;17.10;13.00;;;21.30;99.80;;;;;;5068181;28;20023;-70
2022/04/14 12:18:10;;;;;;;15.93;11.75;;;22.00;98.30;;;;;;5069572;28;20033;-69
2022/04/14 12:20:40;;;;;;;18.60;12.85;;;22.20;95.80;;;;;;5051710;28;20033;-69
2022/04/14 12:23:08;;;;;;;16.80;12.45;;;22.30;96.10;;;;;;5069634;28;20563;-69
2022/04/14 12:25:34;;;;;;;17.08;12.88;;;21.90;95.90;;;;;;5069077;28;20036;-69
2022/04/14 12:28:01;;;;;;;15.38;11.43;;;22.10;96.30;;;;;;5069263;28;20027;-69
2022/04/14 12:30:29;;;;;;;16.67;12.52;;;22.40;95.10;;;;;;5068312;28;20029;-69
2022/04/14 12:33:10;;;;;;;19.02;13.93;;;22.20;94.30;;;;;;5069406;28;20078;-69
2022/04/14 12:35:40;;;;;;;15.55;12.93;;;21.00;96.20;;;;;;5069153;28;20082;-69
2022/04/14 12:38:19;;;;;;;21.08;15.27;;;20.50;97.90;;;;;;5058730;28;20557;-70
2022/04/14 12:41:02;;;;;;;19.08;13.93;;;20.00;99.90;;;;;;5054524;28;20025;-69